American Canyon, CA

9:14 AM PDT on September 20, 2014 (GMT -0700)
Federal Terrace, VSFCD | Change Station
CLOSE
Current Station
Personal Weather Station
Location: Vallejo, CA
Elevation: 34 ft
Nearby Weather Stations

Elev 34 ft 38.13 °N, 122.27 °W | Updated 11 minutes ago

Overcast
Overcast
63.1 °F
Feels Like 63.1 °F
N
6.0
Wind Variable Wind from NNW
Gusts 6.0 mph

Today
High -- | Low -- °F
--% Chance of Precip.
Yesterday
High -- | Low -- °F
Precip. -- in
6:55 AM 7:08 PM
Waning Crescent, 11% visible
Pressure 29.91 in
Visibility 10.0 miles
Clouds Overcast 600 ft
Dew Point 60 °F
Humidity 90%
Rainfall 0.00 in
Snow Depth 0 in , 0 in , 1 in
UV 0.5 out of 12
Pollen 4.00 out of 12
PM2.5 Good
Flu Activity Not available.
METAR KAPC 201554Z AUTO 25004KT 10SM OVC006 17/15 A2993 RMK AO2 SLP127 T01670150

More Conditions Fewer Conditions

Pressure 29.91 in
Visibility 10.0 miles
Clouds Overcast 600 ft
Dew Point 60 °F
Humidity 90%
Rainfall 0.00 in
Snow Depth 0 in , 0 in , 1 in
UV 0.5 out of 12
Pollen 4.00 out of 12
PM2.5 Good
Flu Activity Not available.
METAR KAPC 201554Z AUTO 25004KT 10SM OVC006 17/15 A2993 RMK AO2 SLP127 T01670150

More Conditions Fewer Conditions

10-Day Weather Forecast

Almanac

Astronomy

Sep. 20, 2014 Rise Set
Actual Time 6:55 AM PDT 7:08 PM PDT
Civil Twilight 6:28 AM PDT 7:35 PM PDT
Nautical Twilight 5:57 AM PDT 8:06 PM PDT
Astronomical Twilight 5:26 AM PDT 8:37 PM PDT
Moon 3:41 AM PDT 5:13 PM PDT
Length of Visible Light 13h 06m
Length of Day
12h 13m
Tomorrow will be 2m 27s shorter.
Waning Crescent, 11% of the Moon is Illuminated
Today
Waning Crescent
Sep 24
New
Oct 1
First Quarter
Oct 8
Full
Oct 15
Last Quarter

Today's Extremes

State Highs State Lows

Community

WunderPhotos

Upload Photos

1,754,891 photos uploaded!

Nearby

Air Quality

  Air Quality AQ Index Pollutant
Yesterday Good
PM2.5
Yesterday Good
OZONE
Current Good
PM2.5
Saturday Moderate
PM2.5
Sunday Moderate
PM2.5
Monday Moderate
PM2.5
Tuesday Moderate
PM2.5
Wednesday Moderate
PM2.5

Snow Depth

Station Depth Elevation
Ebbetts Pass 0 in 8700 ft
Tahoe City Cross 0 in 6750 ft
Echo Peak 1 in 7800 ft
Fallen Leaf 0 in 6300 ft
Leavitt Meadows 1 in 7200 ft

Earthquake Activity

City Distance Mag. Time & Date
Livermore, California 44 miles 2.6 3:37 AM PDT
2014-09-19
The Geysers, California 47 miles 2.5 11:29 PM PDT
2014-09-17
Minimum magnitude displayed is 2.5.

Coastal Water Temperatures

Place Temperature
San Francisco, CA 66.0 °F
Richmond, CA 68.0 °F
Port Chicago, CA 69.1 °F

Nearby Weather Stations